Time;durP1;ratioP1;P1;durP2;ratioP2;P2;SDS_P1;SDS_P2;PMS_P1;PMS_P2;Temp;Humidity;BMP_temperature;BMP_pressure;BME280_temperature;BME280_humidity;BME280_pressure;Samples;Min_cycle;Max_cycle;Signal;HPM_P1;HPM_P2
2023/09/28 00:01:03;;;;;;;;;;;21.20;63.00;;;;;;10229910;28;92729;-40
2023/09/28 00:06:05;;;;;;;;;;;21.30;62.70;;;;;;10239865;28;94150;-40
2023/09/28 00:11:06;;;;;;;;;;;21.30;62.20;;;;;;10238515;28;93413;-42
2023/09/28 00:16:08;;;;;;;;;;;21.30;61.90;;;;;;10236538;28;97023;-40
2023/09/28 00:21:10;;;;;;;;;;;21.30;61.60;;;;;;10237611;28;94150;-41
2023/09/28 00:26:12;;;;;;;;;;;21.30;61.20;;;;;;10236154;28;94634;-42
2023/09/28 00:31:14;;;;;;;;;;;21.40;61.00;;;;;;10238550;28;93263;-40
2023/09/28 00:36:16;;;;;;;;;;;21.40;60.70;;;;;;10230887;28;94398;-41
2023/09/28 00:41:19;;;;;;;;;;;21.40;60.50;;;;;;10238122;28;95383;-42
2023/09/28 00:46:21;;;;;;;;;;;21.40;60.30;;;;;;10237805;28;93470;-41
2023/09/28 00:51:25;;;;;;;;;;;21.40;60.00;;;;;;10237804;28;94046;-42
2023/09/28 00:56:28;;;;;;;;;;;21.40;59.90;;;;;;10227741;28;94749;-40
2023/09/28 01:01:31;;;;;;;;;;;21.50;59.70;;;;;;10223083;28;93433;-41
2023/09/28 01:06:35;;;;;;;;;;;21.50;59.60;;;;;;10234603;28;96052;-40
2023/09/28 01:11:37;;;;;;;;;;;21.40;59.20;;;;;;10237484;28;94458;-40
2023/09/28 01:16:39;;;;;;;;;;;21.50;59.10;;;;;;10236875;28;93505;-43
2023/09/28 01:21:41;;;;;;;;;;;21.40;59.00;;;;;;10235155;28;95165;-40
2023/09/28 01:26:43;;;;;;;;;;;21.40;58.80;;;;;;10235790;28;93448;-43
2023/09/28 01:31:44;;;;;;;;;;;21.50;58.80;;;;;;10236717;28;94358;-40
2023/09/28 01:36:46;;;;;;;;;;;21.40;58.60;;;;;;10236180;28;93416;-42
2023/09/28 01:47:02;;;;;;;;;;;21.40;58.40;;;;;;10227058;28;93609;-43
2023/09/28 01:52:04;;;;;;;;;;;21.40;58.30;;;;;;10227517;28;93419;-43
2023/09/28 01:57:05;;;;;;;;;;;21.40;58.10;;;;;;10231760;28;95867;-44
2023/09/28 02:02:07;;;;;;;;;;;21.40;58.10;;;;;;10228004;28;93473;-42
2023/09/28 02:07:09;;;;;;;;;;;21.40;57.90;;;;;;10213518;28;93158;-44
2023/09/28 02:12:12;;;;;;;;;;;21.40;57.90;;;;;;10210878;28;93284;-42
2023/09/28 02:17:14;;;;;;;;;;;21.40;57.90;;;;;;10209397;28;93544;-44
2023/09/28 02:22:16;;;;;;;;;;;21.40;57.80;;;;;;10214964;28;94055;-42
2023/09/28 02:27:17;;;;;;;;;;;21.40;57.80;;;;;;10211541;28;93478;-46
2023/09/28 02:32:19;;;;;;;;;;;21.40;57.70;;;;;;10214625;28;92696;-45
2023/09/28 02:37:21;;;;;;;;;;;21.30;57.60;;;;;;10207226;28;93442;-42
2023/09/28 02:42:23;;;;;;;;;;;21.40;57.60;;;;;;10234084;28;93357;-42
2023/09/28 02:47:25;;;;;;;;;;;21.30;57.50;;;;;;10217557;28;96092;-42
2023/09/28 02:52:26;;;;;;;;;;;21.30;57.40;;;;;;10222654;28;93542;-40
2023/09/28 02:57:28;;;;;;;;;;;21.30;57.30;;;;;;10229262;28;93374;-42
2023/09/28 03:02:30;;;;;;;;;;;21.30;57.30;;;;;;10221528;28;93512;-47
2023/09/28 03:07:32;;;;;;;;;;;21.30;57.40;;;;;;10234817;28;93293;-41
2023/09/28 03:12:33;;;;;;;;;;;21.30;57.20;;;;;;10214796;28;93438;-42
2023/09/28 03:17:35;;;;;;;;;;;21.30;57.40;;;;;;10208235;28;94954;-43
2023/09/28 03:22:37;;;;;;;;;;;21.30;57.20;;;;;;10218382;28;93037;-42
2023/09/28 03:27:39;;;;;;;;;;;21.30;57.20;;;;;;10220433;28;94446;-41
2023/09/28 03:32:41;;;;;;;;;;;21.30;57.20;;;;;;10226167;28;93886;-42
2023/09/28 03:37:44;;;;;;;;;;;21.40;57.10;;;;;;10219809;28;96628;-43
2023/09/28 03:42:48;;;;;;;;;;;21.40;57.20;;;;;;10222958;28;93671;-44
2023/09/28 03:47:53;;;;;;;;;;;21.40;57.10;;;;;;10231352;28;93450;-42
2023/09/28 03:52:55;;;;;;;;;;;21.40;56.90;;;;;;10230626;28;93920;-42
2023/09/28 03:58:00;;;;;;;;;;;21.40;57.00;;;;;;10223676;28;94428;-41
2023/09/28 04:03:02;;;;;;;;;;;21.40;56.90;;;;;;10233138;28;93470;-42
2023/09/28 04:08:05;;;;;;;;;;;21.40;56.90;;;;;;10234999;28;94180;-41
2023/09/28 04:13:06;;;;;;;;;;;21.40;56.80;;;;;;10228450;28;92739;-44
2023/09/28 04:18:08;;;;;;;;;;;21.40;56.80;;;;;;10207741;28;95121;-41
2023/09/28 04:23:09;;;;;;;;;;;21.40;56.80;;;;;;10216636;28;93430;-41
2023/09/28 04:28:12;;;;;;;;;;;21.40;56.70;;;;;;10226236;28;96755;-41
2023/09/28 04:33:14;;;;;;;;;;;21.40;56.70;;;;;;10239084;28;94494;-42
2023/09/28 04:38:16;;;;;;;;;;;21.40;56.70;;;;;;10231894;28;93681;-43
2023/09/28 04:43:19;;;;;;;;;;;21.40;56.40;;;;;;10222671;28;93638;-43
2023/09/28 04:48:21;;;;;;;;;;;21.40;56.40;;;;;;10771767;22;94940;-41
2023/09/28 04:53:23;;;;;;;;;;;21.40;56.40;;;;;;10224381;28;94612;-44
2023/09/28 04:58:24;;;;;;;;;;;21.40;56.40;;;;;;10236081;28;94662;-40
2023/09/28 05:03:26;;;;;;;;;;;21.40;56.20;;;;;;10238782;28;93700;-40
2023/09/28 05:08:28;;;;;;;;;;;21.40;56.10;;;;;;10239003;28;94936;-40
2023/09/28 05:13:30;;;;;;;;;;;21.40;56.00;;;;;;10250775;28;93370;-40
2023/09/28 05:18:31;;;;;;;;;;;21.40;56.00;;;;;;10255771;28;95854;-40
2023/09/28 05:23:33;;;;;;;;;;;21.40;56.00;;;;;;10242936;28;93603;-39
2023/09/28 05:28:35;;;;;;;;;;;21.40;56.00;;;;;;10245530;28;93429;-41
2023/09/28 05:33:37;;;;;;;;;;;21.40;55.80;;;;;;10238124;28;94417;-40
2023/09/28 05:38:40;;;;;;;;;;;21.40;56.00;;;;;;10236154;28;93334;-39
2023/09/28 05:43:42;;;;;;;;;;;21.40;56.00;;;;;;10236100;28;94407;-39
2023/09/28 05:48:44;;;;;;;;;;;21.30;56.40;;;;;;10235521;28;93408;-40
2023/09/28 05:53:45;;;;;;;;;;;21.30;57.80;;;;;;10238273;28;92920;-39
2023/09/28 05:58:49;;;;;;;;;;;21.30;59.60;;;;;;10238106;28;93497;-38
2023/09/28 06:03:51;;;;;;;;;;;21.40;59.20;;;;;;10239243;28;93546;-37
2023/09/28 06:08:53;;;;;;;;;;;21.40;59.50;;;;;;10226882;28;95936;-40
2023/09/28 06:13:55;;;;;;;;;;;21.40;59.60;;;;;;10232564;28;94534;-41
2023/09/28 06:24:29;;;;;;;;;;;21.50;60.00;;;;;;10254776;22;97352;-46
2023/09/28 17:23:16;;;;;;;;;;;22.20;59.40;;;;;;12213735;23;95463;31
2023/09/28 17:28:18;;;;;;;;;;;22.10;59.40;;;;;;9984786;29;94946;-71
2023/09/28 17:33:20;;;;;;;;;;;22.10;59.60;;;;;;9986160;29;93607;-71
2023/09/28 17:38:22;;;;;;;;;;;22.10;59.10;;;;;;9993664;29;93972;-70
2023/09/28 17:43:23;;;;;;;;;;;22.00;58.80;;;;;;9995293;29;94809;-71
2023/09/28 17:48:26;;;;;;;;;;;22.10;58.90;;;;;;9993146;29;92621;-71
2023/09/28 17:53:28;;;;;;;;;;;22.00;58.70;;;;;;9998520;29;94765;-71
2023/09/28 17:58:29;;;;;;;;;;;22.00;58.40;;;;;;9989180;29;94451;-71
2023/09/28 18:03:32;;;;;;;;;;;21.90;58.30;;;;;;9992842;29;95858;-71
2023/09/28 18:08:34;;;;;;;;;;;22.00;58.40;;;;;;9987668;29;93536;-71
2023/09/28 18:13:40;;;;;;;;;;;22.00;58.20;;;;;;9999017;29;94177;-72
2023/09/28 18:18:41;;;;;;;;;;;21.90;58.20;;;;;;10003444;29;93676;-72
2023/09/28 18:23:43;;;;;;;;;;;21.90;58.10;;;;;;9997233;29;93456;-71
2023/09/28 18:28:45;;;;;;;;;;;21.90;58.20;;;;;;10008249;29;93352;-72
2023/09/28 18:33:50;;;;;;;;;;;21.90;58.10;;;;;;9993951;29;94226;-71
2023/09/28 18:38:58;;;;;;;;;;;22.00;58.20;;;;;;9999131;29;92808;-70
2023/09/28 18:44:15;;;;;;;;;;;21.90;58.00;;;;;;10009348;29;92927;-71
2023/09/28 18:49:22;;;;;;;;;;;21.90;57.70;;;;;;9999211;29;93691;-72
2023/09/28 18:54:43;;;;;;;;;;;21.90;57.50;;;;;;10040548;23;95458;-58
2023/09/28 18:59:45;;;;;;;;;;;21.90;57.40;;;;;;10032373;28;94484;-58
2023/09/28 19:04:47;;;;;;;;;;;21.90;57.30;;;;;;10047755;28;94993;-59
2023/09/28 19:09:48;;;;;;;;;;;21.90;58.10;;;;;;10039474;28;94914;-59
2023/09/28 19:14:50;;;;;;;;;;;21.90;57.30;;;;;;10041946;28;93810;-58
2023/09/28 19:19:53;;;;;;;;;;;21.90;58.00;;;;;;10040180;28;94571;-58
2023/09/28 19:24:55;;;;;;;;;;;21.90;56.80;;;;;;10042136;28;93651;-58
2023/09/28 19:29:57;;;;;;;;;;;22.00;56.70;;;;;;10045655;28;92796;-58
2023/09/28 19:34:59;;;;;;;;;;;21.90;56.60;;;;;;10041089;28;94145;-58
2023/09/28 19:40:00;;;;;;;;;;;21.90;56.50;;;;;;10043293;28;94153;-58
2023/09/28 19:45:02;;;;;;;;;;;21.90;56.60;;;;;;10048077;28;96109;-58
2023/09/28 19:50:04;;;;;;;;;;;21.90;56.40;;;;;;10048174;28;94606;-58
2023/09/28 19:55:07;;;;;;;;;;;21.90;56.30;;;;;;10048265;28;94791;-59
2023/09/28 20:00:10;;;;;;;;;;;21.90;56.30;;;;;;10046337;28;95589;-59
2023/09/28 20:05:12;;;;;;;;;;;21.90;56.20;;;;;;10043607;28;95208;-59
2023/09/28 20:10:14;;;;;;;;;;;21.90;56.20;;;;;;10046116;28;94496;-58
2023/09/28 20:15:16;;;;;;;;;;;21.90;56.60;;;;;;10042980;28;93598;-59
2023/09/28 20:20:18;;;;;;;;;;;21.90;57.10;;;;;;10040957;28;93753;-58
2023/09/28 20:25:20;;;;;;;;;;;21.90;56.20;;;;;;10036225;28;94623;-58
2023/09/28 20:30:22;;;;;;;;;;;21.90;56.00;;;;;;10049100;28;93918;-58
2023/09/28 20:35:24;;;;;;;;;;;21.80;55.90;;;;;;10033422;28;96896;-58
2023/09/28 20:40:25;;;;;;;;;;;21.90;56.00;;;;;;10046001;28;94507;-59
2023/09/28 20:45:27;;;;;;;;;;;21.80;55.90;;;;;;10040511;28;93553;-58
2023/09/28 20:50:29;;;;;;;;;;;21.80;56.90;;;;;;10045193;28;93786;-58
2023/09/28 20:55:31;;;;;;;;;;;21.80;55.80;;;;;;10047559;28;95760;-58
2023/09/28 21:00:34;;;;;;;;;;;21.80;55.70;;;;;;10051278;28;94798;-58
2023/09/28 21:05:36;;;;;;;;;;;21.80;55.70;;;;;;10042505;28;94948;-58
2023/09/28 21:10:38;;;;;;;;;;;21.80;55.70;;;;;;10037409;28;93598;-58
2023/09/28 21:15:40;;;;;;;;;;;21.70;55.60;;;;;;10033382;28;94542;-58
2023/09/28 21:20:42;;;;;;;;;;;21.70;55.60;;;;;;10046005;28;93541;-58
2023/09/28 21:25:44;;;;;;;;;;;21.70;55.40;;;;;;10041244;28;97125;-58
2023/09/28 21:30:46;;;;;;;;;;;21.70;55.40;;;;;;10041198;28;93460;-58
2023/09/28 21:35:47;;;;;;;;;;;21.70;55.40;;;;;;10043461;28;93377;-58
2023/09/28 21:40:49;;;;;;;;;;;21.70;55.30;;;;;;10042728;28;94492;-58
2023/09/28 21:45:51;;;;;;;;;;;21.70;55.20;;;;;;10045212;28;93594;-58
2023/09/28 21:50:53;;;;;;;;;;;21.70;55.30;;;;;;10042303;28;93937;-57
2023/09/28 21:55:55;;;;;;;;;;;21.70;55.20;;;;;;10031132;28;94929;-58
2023/09/28 22:00:56;;;;;;;;;;;21.70;55.20;;;;;;10042289;28;93698;-58
2023/09/28 22:05:58;;;;;;;;;;;21.60;55.20;;;;;;10043538;28;94718;-58
2023/09/28 22:11:01;;;;;;;;;;;21.60;55.00;;;;;;10045032;28;94516;-58
2023/09/28 22:16:04;;;;;;;;;;;21.70;55.00;;;;;;10042073;28;95772;-58
2023/09/28 22:21:06;;;;;;;;;;;21.60;55.00;;;;;;10044302;28;93696;-59
2023/09/28 22:26:08;;;;;;;;;;;21.70;54.90;;;;;;10031973;28;93606;-59
2023/09/28 22:31:10;;;;;;;;;;;21.60;54.90;;;;;;10044023;28;94255;-59
2023/09/28 22:36:12;;;;;;;;;;;21.70;54.90;;;;;;10033682;28;93447;-59
2023/09/28 22:41:15;;;;;;;;;;;21.70;54.80;;;;;;10041340;28;94459;-59
2023/09/28 22:46:16;;;;;;;;;;;21.70;54.80;;;;;;10043317;28;94578;-59
2023/09/28 22:51:18;;;;;;;;;;;21.70;54.70;;;;;;10036805;28;93766;-59
2023/09/28 22:56:21;;;;;;;;;;;21.70;54.60;;;;;;10043270;28;94024;-58
2023/09/28 23:01:22;;;;;;;;;;;21.70;54.60;;;;;;10040781;28;92655;-57
2023/09/28 23:06:24;;;;;;;;;;;21.70;54.50;;;;;;10037992;28;95667;-57
2023/09/28 23:11:26;;;;;;;;;;;21.70;54.50;;;;;;10048015;28;93666;-58
2023/09/28 23:16:31;;;;;;;;;;;21.70;54.50;;;;;;10041596;28;93398;-58
2023/09/28 23:21:33;;;;;;;;;;;21.70;54.60;;;;;;10049657;28;93407;-58
2023/09/28 23:26:35;;;;;;;;;;;21.70;54.50;;;;;;10048027;28;94405;-59
2023/09/28 23:31:37;;;;;;;;;;;21.70;54.50;;;;;;10040281;28;92904;-58
2023/09/28 23:36:39;;;;;;;;;;;21.70;54.60;;;;;;10041982;28;94879;-58
2023/09/28 23:41:41;;;;;;;;;;;21.70;54.60;;;;;;10042848;28;92012;-58
2023/09/28 23:46:43;;;;;;;;;;;21.70;54.60;;;;;;10045502;28;93849;-58
2023/09/28 23:51:45;;;;;;;;;;;21.70;54.60;;;;;;10039991;28;93590;-58
2023/09/28 23:56:47;;;;;;;;;;;21.70;54.60;;;;;;10037883;28;95883;-58
